Thunder radar more information blitzortung!


Radar de pluja more information rain snow radar


Visita la nostra xarxa de llocs de meteo:

Template documentation
and downloads

And another site



No particular awareness of the weather is required.    There are no Weather-warnings

Pagina Historial Weather Underground text

Diari Resum Agost 30, 2017 Unitats:  Mètric    Imperial   Tant
« Previous Dia
SegĂźent Dia »
Diari Setmana Mensual Anual Personalitzada
  Maxima: Minima: Media:
Temperatura: -17.8 °C -7.4 °C -4.7 °C
Punt de rosada: -17.8 °C -10.4 °C -8.8 °C
Humitat: Humidity % 48 % 64 %
Wind Speed: 0 km/h 0 km/h 9.7 km/h
RĂ fegues de vent: 0 km/h - -
Vent:- - SW
Pression baro: 0 hPa 34256.2 hPa -
Precipitacions: 0 mm    
Historical Graphs
 
 
Dades de taula per Agost 30, 2017
Temps Temperatura Punt de rosada Pression baro Vent Wind Speed RĂ fegues de vent Humitat Rainfall Rate (Hourly)
-17.8 °C -17.8 °C 0 hPa Calm     Humidity % 0 mm
00:01 -4.8 °C -10.4 °C 34327.3 hPa SW 9 km/h   53 % 0 mm
00:05 -6.2 °C -10 °C 34395 hPa WSW 12.9 km/h 20.8 km/h 65 % 0 mm
00:15 -6.3 °C -9.8 °C 34361.1 hPa WSW 5.1 km/h 10.3 km/h 67 % 0 mm
00:30 -6.3 °C -9.8 °C 34361.1 hPa WSW 5.1 km/h 12.9 km/h 67 % 0 mm
00:40 -6.3 °C -9.7 °C 34361.1 hPa WSW 7.7 km/h 15.6 km/h 68 % 0 mm
00:50 -6.2 °C -9.6 °C 34361.1 hPa WSW 2.6 km/h 15.6 km/h 68 % 0 mm
01:00 -6.3 °C -9.7 °C 34361.1 hPa West 5.1 km/h 7.7 km/h 68 % 0 mm
01:10 -6.2 °C -9.6 °C 34361.1 hPa WSW 5.1 km/h 7.7 km/h 68 % 0 mm
01:20 -6.3 °C -9.6 °C 34361.1 hPa Calm   5.1 km/h 69 % 0 mm
01:30 -6.4 °C -9.6 °C 34361.1 hPa WSW 5.1 km/h 7.7 km/h 70 % 0 mm
01:40 -6.4 °C -9.6 °C 34361.1 hPa WSW 5.1 km/h 10.3 km/h 70 % 0 mm
01:50 -6.4 °C -9.6 °C 34361.1 hPa SW 7.7 km/h 7.7 km/h 70 % 0 mm
02:00 -6.4 °C -9.4 °C 34361.1 hPa WSW 5.1 km/h 5.1 km/h 71 % 0 mm
02:10 -6.5 °C -9.4 °C 34361.1 hPa WSW 5.1 km/h 7.7 km/h 72 % 0 mm
02:20 -6.8 °C -9.3 °C 34361.1 hPa WSW 5.1 km/h 7.7 km/h 75 % 0 mm
02:30 -6.9 °C -9.3 °C 34395 hPa WSW 5.1 km/h 12.9 km/h 76 % 0 mm
02:40 -7.1 °C -9.3 °C 34395 hPa WSW 5.1 km/h 7.7 km/h 77 % 0 mm
02:50 -7.1 °C -9.3 °C 34395 hPa Calm   7.7 km/h 78 % 0 mm
03:00 -7.2 °C -9.1 °C 34361.1 hPa Calm     80 % 0 mm
03:10 -7.2 °C -9.1 °C 34361.1 hPa Calm   5.1 km/h 80 % 0 mm
03:20 -7.2 °C -9.2 °C 34361.1 hPa SW 5.1 km/h 7.7 km/h 80 % 0 mm
03:30 -7.2 °C -9.1 °C 34395 hPa Calm   7.7 km/h 81 % 0 mm
03:40 -7.3 °C -9 °C 34395 hPa SW 5.1 km/h 5.1 km/h 82 % 0 mm
03:50 -7.3 °C -9 °C 34361.1 hPa WSW 5.1 km/h 7.7 km/h 82 % 0 mm
04:00 -7.3 °C -9 °C 34361.1 hPa WSW 2.6 km/h 7.7 km/h 83 % 0 mm
04:10 -7.4 °C -8.9 °C 34361.1 hPa SW 2.6 km/h 5.1 km/h 84 % 0 mm
04:20 -7.4 °C -8.9 °C 34361.1 hPa Calm   5.1 km/h 84 % 0 mm
04:30 -7.3 °C -8.8 °C 34361.1 hPa Calm   5.1 km/h 84 % 0 mm
04:40 -7.3 °C -8.8 °C 34361.1 hPa Calm   5.1 km/h 84 % 0 mm
04:50 -7.2 °C -8.8 °C 34361.1 hPa SE 2.6 km/h 5.1 km/h 83 % 0 mm
05:00 -7.1 °C -8.6 °C 34327.3 hPa Calm     84 % 0 mm
05:10 -6.9 °C -8.6 °C 34327.3 hPa South 2.6 km/h 7.7 km/h 83 % 0 mm
05:20 -6.6 °C -8.3 °C 34327.3 hPa SE 2.6 km/h 7.7 km/h 83 % 0 mm
05:40 -6.6 °C -8.6 °C 34327.3 hPa NE 2.6 km/h 10.3 km/h 80 % 0 mm
05:50 -6.6 °C -8.5 °C 34327.3 hPa Calm   5.1 km/h 81 % 0 mm
10:56 -5.1 °C -7.3 °C 34327.3 hPa Calm   4.2 km/h 78 % 0 mm
11:01 -4.8 °C -7.4 °C 34327.3 hPa SW 6 km/h 6 km/h 75 % 0 mm
11:06 -4.7 °C -7.4 °C 34327.3 hPa SSW 6 km/h 6 km/h 74 % 0 mm
11:11 -4.4 °C -7.4 °C 34327.3 hPa SSW 10.3 km/h 10.3 km/h 72 % 0 mm
11:16 -4.4 °C -7.7 °C 34327.3 hPa South 6 km/h 6 km/h 69 % 0 mm
11:21 -4.3 °C -7.7 °C 34327.3 hPa WSW 6 km/h 6 km/h 69 % 0 mm
11:26 -4.2 °C -7.6 °C 34327.3 hPa SE 3.7 km/h 3.7 km/h 69 % 0 mm
11:31 -4.4 °C -7.9 °C 34327.3 hPa SSE 11.9 km/h 11.9 km/h 68 % 0 mm
11:36 -4.6 °C -7.9 °C 34327.3 hPa SE 6.8 km/h 7.6 km/h 69 % 0 mm
11:41 -4.3 °C -7.7 °C 34361.1 hPa ESE 3.7 km/h 3.7 km/h 69 % 0 mm
11:46 -4.1 °C -7.6 °C 34361.1 hPa SW 6 km/h 6 km/h 68 % 0 mm
11:51 -3.8 °C -7.6 °C 34361.1 hPa WSW 11.9 km/h 11.9 km/h 66 % 0 mm
11:56 -3.4 °C -7.6 °C 34327.3 hPa SSW 3.7 km/h 3.7 km/h 63 % 0 mm
12:01 -3.4 °C -7.6 °C 34327.3 hPa WSW 15 km/h 15 km/h 63 % 0 mm
12:06 -3.1 °C -7.4 °C 34327.3 hPa South 6.8 km/h 6.8 km/h 62 % 0 mm
12:11 -2.8 °C -7.4 °C 34293.4 hPa SSW 9.8 km/h 9.8 km/h 60 % 0 mm
12:16 -2.6 °C -7.6 °C 34293.4 hPa SW 6 km/h 6 km/h 58 % 0 mm
12:21 -2.6 °C -7.7 °C 34293.4 hPa WSW 11.9 km/h 11.9 km/h 57 % 0 mm
12:26 -2.7 °C -7.9 °C 34327.3 hPa SW 11.9 km/h 11.9 km/h 56 % 0 mm
12:31 -2.5 °C -7.9 °C 34327.3 hPa WSW 15 km/h 15 km/h 55 % 0 mm
12:36 -2.1 °C -7.8 °C 34327.3 hPa SSE 11.9 km/h 11.9 km/h 54 % 0 mm
12:41 -2.2 °C -8 °C 34327.3 hPa West 15 km/h 15 km/h 53 % 0 mm
12:46 -2.1 °C -7.9 °C 34327.3 hPa SW 16.1 km/h 16.1 km/h 53 % 0 mm
12:51 -2.3 °C -8.3 °C 34327.3 hPa SW 15 km/h 15 km/h 52 % 0 mm
12:56 -2.3 °C -8.3 °C 34327.3 hPa SW 9 km/h 9 km/h 52 % 0 mm
13:01 -2.4 °C -8.4 °C 34327.3 hPa SW 17.9 km/h 17.9 km/h 52 % 0 mm
13:06 -2.5 °C -8.4 °C 34327.3 hPa SW 19.2 km/h 19.2 km/h 52 % 0 mm
13:11 -2.6 °C -8.6 °C 34327.3 hPa South 9.3 km/h 9.3 km/h 52 % 0 mm
13:16 -2.6 °C -8.5 °C 34327.3 hPa SW 15 km/h 15 km/h 52 % 0 mm
13:21 -2.6 °C -8.7 °C 34327.3 hPa SW 20.9 km/h 20.9 km/h 51 % 0 mm
13:26 -2.4 °C -8.4 °C 34327.3 hPa SW 11.9 km/h 11.9 km/h 52 % 0 mm
13:31 -2.2 °C -8.4 °C 34327.3 hPa WNW 11.9 km/h 11.9 km/h 51 % 0 mm
13:36 -2.2 °C -8.6 °C 34327.3 hPa SSE 20.9 km/h 20.9 km/h 50 % 0 mm
13:41 -2.2 °C -8.7 °C 34327.3 hPa WSW 15 km/h 15 km/h 49 % 0 mm
13:46 -2.2 °C -8.5 °C 34327.3 hPa SSW 20.9 km/h 20.9 km/h 50 % 0 mm
13:51 -2.1 °C -8.4 °C 34327.3 hPa SW 26.9 km/h 26.9 km/h 50 % 0 mm
13:56 -2.3 °C -8.7 °C 34327.3 hPa South 11.9 km/h 11.9 km/h 50 % 0 mm
14:01 -2.3 °C -8.7 °C 34327.3 hPa SE 17.9 km/h 17.9 km/h 50 % 0 mm
14:06 -2.3 °C -8.8 °C 34327.3 hPa SW 15.6 km/h 15.6 km/h 49 % 0 mm
14:11 -2.3 °C -8.8 °C 34327.3 hPa SSW 15 km/h 15 km/h 49 % 0 mm
14:16 -2.6 °C -9.1 °C 34327.3 hPa WSW 29 km/h 29 km/h 49 % 0 mm
14:21 -2.7 °C -9.3 °C 34327.3 hPa WSW 20.9 km/h 20.9 km/h 48 % 0 mm
14:26 -2.7 °C -9.3 °C 34327.3 hPa SSE 20.9 km/h 20.9 km/h 48 % 0 mm
14:27 -2.7 °C -9.3 °C 34327.3 hPa SW 9.3 km/h 9.8 km/h 48 % 0 mm
14:32 -2.8 °C -9.2 °C 34327.3 hPa SSW 17.9 km/h 17.9 km/h 49 % 0 mm
14:37 -2.8 °C -9.1 °C 34327.3 hPa SSW 15 km/h 15 km/h 50 % 0 mm
14:42 -2.9 °C -9.4 °C 34327.3 hPa SW 23.8 km/h 23.8 km/h 49 % 0 mm
14:47 -3 °C -9.4 °C 34327.3 hPa SW 26.9 km/h 26.9 km/h 49 % 0 mm
14:52 -3.1 °C -9.4 °C 34327.3 hPa SSW 20.9 km/h 20.9 km/h 50 % 0 mm
14:57 -3.1 °C -9.3 °C 34327.3 hPa WSW 17.9 km/h 17.9 km/h 50 % 0 mm
15:02 -3.2 °C -9.4 °C 34327.3 hPa SW 20.9 km/h 20.9 km/h 50 % 0 mm
15:07 -3.2 °C -9.5 °C 34327.3 hPa WSW 20.3 km/h 20.3 km/h 50 % 0 mm
15:12 -3.2 °C -9.3 °C 34327.3 hPa SW 11.9 km/h 11.9 km/h 51 % 0 mm
15:17 -3.1 °C -9.2 °C 34327.3 hPa SSW 17.9 km/h 17.9 km/h 51 % 0 mm
15:22 -3.1 °C -9.2 °C 34327.3 hPa SW 29.8 km/h 29.8 km/h 51 % 0 mm
15:27 -3.1 °C -9.2 °C 34327.3 hPa SSW 17.9 km/h 17.9 km/h 51 % 0 mm
15:32 -3 °C -9.1 °C 34327.3 hPa SW 15 km/h 15 km/h 51 % 0 mm
15:37 -3.1 °C -9.1 °C 34327.3 hPa SW 23.8 km/h 23.8 km/h 51 % 0 mm
15:42 -3.1 °C -9.2 °C 34327.3 hPa SW 19.2 km/h 19.2 km/h 51 % 0 mm
15:47 -3.1 °C -9.4 °C 34327.3 hPa SW 23.8 km/h 23.8 km/h 50 % 0 mm
15:52 -3.1 °C -9.1 °C 34327.3 hPa SSW 17.9 km/h 17.9 km/h 51 % 0 mm
15:57 -3.1 °C -9.2 °C 34327.3 hPa SW 23.8 km/h 23.8 km/h 51 % 0 mm
16:02 -3.2 °C -9.4 °C 34327.3 hPa SW 20.9 km/h 20.9 km/h 50 % 0 mm
16:07 -3.2 °C -9.3 °C 34327.3 hPa SW 26.9 km/h 26.9 km/h 51 % 0 mm
16:12 -3.2 °C -9.3 °C 34293.4 hPa SSE 19.6 km/h 19.6 km/h 51 % 0 mm
16:17 -3.2 °C -9.3 °C 34293.4 hPa SSW 15 km/h 15 km/h 51 % 0 mm
16:22 -3.3 °C -9.3 °C 34293.4 hPa SW 15 km/h 15 km/h 51 % 0 mm
16:27 -3.3 °C -9.4 °C 34293.4 hPa SW 20.9 km/h 20.9 km/h 51 % 0 mm
16:32 -3.3 °C -9.4 °C 34293.4 hPa SW 20.9 km/h 20.9 km/h 51 % 0 mm
16:37 -3.3 °C -9.3 °C 34293.4 hPa West 15 km/h 15.3 km/h 51 % 0 mm
16:42 -3.3 °C -9.4 °C 34256.2 hPa South 23.8 km/h 23.8 km/h 51 % 0 mm
16:52 -3.4 °C -9.5 °C 34256.2 hPa SSW 26.9 km/h 26.9 km/h 51 % 0 mm
16:57 -3.4 °C -9.3 °C 34293.4 hPa SSW 14 km/h 14 km/h 52 % 0 mm
17:02 -3.4 °C -9.3 °C 34293.4 hPa SW 17.9 km/h 17.9 km/h 52 % 0 mm
17:07 -3.6 °C -9.3 °C 34293.4 hPa SSE 15 km/h 15 km/h 53 % 0 mm
17:12 -3.6 °C -9.3 °C 34293.4 hPa SW 20.9 km/h 20.9 km/h 53 % 0 mm
17:17 -3.7 °C -9.4 °C 34293.4 hPa SW 20.9 km/h 20.9 km/h 53 % 0 mm
17:22 -3.7 °C -9.4 °C 34293.4 hPa WSW 15 km/h 15 km/h 53 % 0 mm
17:27 -3.7 °C -9.4 °C 34293.4 hPa WSW 15 km/h 15 km/h 53 % 0 mm
17:32 -3.7 °C -9.4 °C 34293.4 hPa South 26.9 km/h 26.9 km/h 53 % 0 mm
17:37 -3.8 °C -9.5 °C 34293.4 hPa SSW 20.9 km/h 20.9 km/h 53 % 0 mm
17:47 -3.7 °C -9.3 °C 34293.4 hPa SW 11.9 km/h 11.9 km/h 54 % 0 mm
17:52 -3.7 °C -9.3 °C 34293.4 hPa SSW 9 km/h 9 km/h 54 % 0 mm
17:57 -3.7 °C -9.3 °C 34293.4 hPa South 9 km/h 9 km/h 54 % 0 mm
18:02 -3.7 °C -9.1 °C 34293.4 hPa WSW 15 km/h 15 km/h 55 % 0 mm
18:07 -3.7 °C -9.1 °C 34293.4 hPa SW 15 km/h 15 km/h 55 % 0 mm
18:12 -3.8 °C -9.2 °C 34293.4 hPa WSW 15 km/h 15 km/h 55 % 0 mm
18:17 -3.8 °C -9.2 °C 34293.4 hPa South 15 km/h 15 km/h 55 % 0 mm
18:22 -3.9 °C -9.3 °C 34293.4 hPa South 11.9 km/h 11.9 km/h 55 % 0 mm
18:27 -3.9 °C -9 °C 34293.4 hPa SW 11.9 km/h 11.9 km/h 57 % 0 mm
18:32 -4 °C -9.1 °C 34293.4 hPa WSW 19.6 km/h 19.6 km/h 57 % 0 mm
18:37 -4.1 °C -9 °C 34293.4 hPa SSW 11.9 km/h 11.9 km/h 58 % 0 mm
18:42 -4.1 °C -9 °C 34256.2 hPa West 15 km/h 15 km/h 58 % 0 mm
18:47 -4.1 °C -9 °C 34256.2 hPa South 15 km/h 15 km/h 58 % 0 mm
18:52 -4.1 °C -8.8 °C 34256.2 hPa WSW 23.8 km/h 23.8 km/h 59 % 0 mm
18:57 -4.2 °C -8.9 °C 34256.2 hPa WSW 10.3 km/h 10.3 km/h 59 % 0 mm
19:02 -4.2 °C -8.8 °C 34256.2 hPa SW 9 km/h 9 km/h 60 % 0 mm
19:07 -4.3 °C -8.8 °C 34256.2 hPa SSW 9 km/h 9 km/h 60 % 0 mm
19:12 -4.3 °C -8.8 °C 34256.2 hPa SW 11.9 km/h 11.9 km/h 60 % 0 mm
19:17 -4.3 °C -8.9 °C 34256.2 hPa SSW 15 km/h 15 km/h 60 % 0 mm
19:22 -4.4 °C -9 °C 34256.2 hPa WSW 12.2 km/h 12.2 km/h 60 % 0 mm
19:27 -4.4 °C -8.9 °C 34256.2 hPa SW 15 km/h 15 km/h 61 % 0 mm
19:32 -4.4 °C -8.9 °C 34256.2 hPa SW 15 km/h 15 km/h 61 % 0 mm
19:37 -4.5 °C -8.8 °C 34256.2 hPa SW 15 km/h 15 km/h 62 % 0 mm
19:42 -4.6 °C -8.8 °C 34256.2 hPa SW 19.2 km/h 19.2 km/h 62 % 0 mm
19:47 -4.6 °C -8.7 °C 34256.2 hPa WSW 6.3 km/h 6.3 km/h 63 % 0 mm
19:52 -4.6 °C -8.8 °C 34256.2 hPa WSW 11.9 km/h 11.9 km/h 63 % 0 mm
19:57 -4.6 °C -8.8 °C 34256.2 hPa SSW 9 km/h 9 km/h 63 % 0 mm
20:02 -4.7 °C -8.8 °C 34256.2 hPa SW 6.3 km/h 6.3 km/h 63 % 0 mm
20:07 -4.7 °C -8.8 °C 34256.2 hPa SW 9 km/h 9 km/h 63 % 0 mm
20:12 -4.7 °C -8.8 °C 34256.2 hPa SW 6 km/h 6.8 km/h 63 % 0 mm
20:17 -4.8 °C -8.8 °C 34256.2 hPa WSW 9 km/h 9 km/h 64 % 0 mm
20:20 -5.9 °C -8.4 °C 34256.2 hPa SW 2.6 km/h 5.1 km/h 76 % 0 mm
20:22 -4.8 °C -8.8 °C 34256.2 hPa SW 6.3 km/h 6.8 km/h 64 % 0 mm
20:27 -4.8 °C -8.8 °C 34256.2 hPa WSW 15 km/h 15 km/h 64 % 0 mm
20:30 -5.9 °C -8.4 °C 34256.2 hPa SW 2.6 km/h 5.1 km/h 76 % 0 mm
20:32 -4.9 °C -8.7 °C 34256.2 hPa SW 6.3 km/h 6.3 km/h 65 % 0 mm
20:37 -4.9 °C -8.8 °C 34256.2 hPa WSW 11.9 km/h 11.9 km/h 65 % 0 mm
20:40 -5.9 °C -8.3 °C 34256.2 hPa WSW 5.1 km/h 7.7 km/h 76 % 0 mm
20:42 -4.9 °C -8.8 °C 34256.2 hPa WSW 6 km/h 6 km/h 65 % 0 mm
20:47 -4.9 °C -8.7 °C 34256.2 hPa WSW 6 km/h 6 km/h 66 % 0 mm
20:48 -4.9 °C -8.8 °C 34256.2 hPa WNW 6 km/h 6 km/h 65 % 0 mm
20:50 -5.9 °C -8.2 °C 34256.2 hPa WSW 2.6 km/h 7.7 km/h 77 % 0 mm
20:53 -5 °C -8.8 °C 34256.2 hPa SSW 11.9 km/h 11.9 km/h 65 % 0 mm
20:58 -5 °C -8.7 °C 34256.2 hPa SW 9 km/h 9 km/h 66 % 0 mm
21:00 -5.9 °C -8.2 °C 34256.2 hPa Calm   5.1 km/h 77 % 0 mm
21:03 -5.1 °C -8.8 °C 34256.2 hPa WSW 11.9 km/h 11.9 km/h 66 % 0 mm
21:08 -5.1 °C -8.8 °C 34256.2 hPa WSW 9 km/h 9 km/h 66 % 0 mm
21:10 -5.9 °C -8.3 °C 34256.2 hPa SW 2.6 km/h 7.7 km/h 77 % 0 mm
21:13 -5.1 °C -8.8 °C 34256.2 hPa SW 9 km/h 9 km/h 66 % 0 mm
21:18 -5.1 °C -8.8 °C 34256.2 hPa SSW 15 km/h 15 km/h 66 % 0 mm
21:20 -6 °C -8.3 °C 34256.2 hPa SW 2.6 km/h 5.1 km/h 77 % 0 mm
21:23 -5.2 °C -8.7 °C 34256.2 hPa SW 9 km/h 9 km/h 67 % 0 mm
21:28 -5.2 °C -8.7 °C 34293.4 hPa WSW 11.9 km/h 11.9 km/h 67 % 0 mm
21:30 -6 °C -8.2 °C 34293.4 hPa SW 2.6 km/h 5.1 km/h 78 % 0 mm
21:33 -5.2 °C -8.7 °C 34293.4 hPa WSW 6 km/h 6 km/h 68 % 0 mm
21:38 -5.2 °C -8.7 °C 34293.4 hPa SW 6 km/h 6 km/h 68 % 0 mm
21:40 -6 °C -8.2 °C 34293.4 hPa Calm   2.6 km/h 78 % 0 mm
21:43 -5.3 °C -8.7 °C 34293.4 hPa SSW 6 km/h 6 km/h 68 % 0 mm
21:48 -5.3 °C -8.6 °C 34293.4 hPa SW 6 km/h 6 km/h 69 % 0 mm
21:50 -6 °C -8.2 °C 34256.2 hPa WSW 2.6 km/h   78 % 0 mm
21:58 -5.3 °C -8.6 °C 34293.4 hPa WSW 3.7 km/h 3.7 km/h 69 % 0 mm
22:00 -5.9 °C -8.2 °C 34293.4 hPa WSW 2.6 km/h 2.6 km/h 78 % 0 mm
22:03 -5.3 °C -8.7 °C 34293.4 hPa Calm     69 % 0 mm
22:08 -5.4 °C -8.7 °C 34293.4 hPa SW 6 km/h 6 km/h 69 % 0 mm
22:10 -5.9 °C -8.1 °C 34293.4 hPa Calm     79 % 0 mm
22:13 -5.4 °C -8.7 °C 34293.4 hPa WSW 6 km/h 6 km/h 70 % 0 mm
22:18 -5.4 °C -8.7 °C 34293.4 hPa WSW 3.7 km/h 3.7 km/h 70 % 0 mm
22:20 -5.9 °C -8.1 °C 34256.2 hPa Calm   2.6 km/h 79 % 0 mm
22:23 -5.4 °C -8.7 °C 34293.4 hPa Calm     70 % 0 mm
22:28 -5.5 °C -8.7 °C 34293.4 hPa WSW 4.2 km/h 4.2 km/h 70 % 0 mm
22:30 -5.9 °C -8.2 °C 34256.2 hPa NW 2.6 km/h 5.1 km/h 78 % 0 mm
22:33 -5.5 °C -8.6 °C 34293.4 hPa West 3.7 km/h   71 % 0 mm
22:38 -5.6 °C -8.6 °C 34293.4 hPa SW 6 km/h 6 km/h 71 % 0 mm
22:40 -6.1 °C -8.3 °C 34256.2 hPa Calm   2.6 km/h 78 % 0 mm
22:43 -5.7 °C -8.6 °C 34293.4 hPa SW 6.3 km/h 6.3 km/h 72 % 0 mm
22:48 -5.7 °C -8.7 °C 34293.4 hPa SW 6 km/h 6 km/h 72 % 0 mm
22:50 -6.1 °C -8.2 °C 34293.4 hPa Calm   5.1 km/h 79 % 0 mm
22:53 -5.7 °C -8.5 °C 34293.4 hPa WSW 3.1 km/h   73 % 0 mm
22:58 -5.8 °C -8.4 °C 34293.4 hPa Calm     74 % 0 mm
23:00 -6.1 °C -8.3 °C 34293.4 hPa SW 2.6 km/h 5.1 km/h 78 % 0 mm
23:03 -5.8 °C -8.4 °C 34293.4 hPa Calm     74 % 0 mm
23:08 -5.7 °C -8.4 °C 34293.4 hPa North 3.1 km/h 3.7 km/h 74 % 0 mm
23:10 -6.1 °C -8.3 °C 34293.4 hPa WSW 2.6 km/h 5.1 km/h 78 % 0 mm
23:13 -5.7 °C -8.4 °C 34256.2 hPa NNW 3.7 km/h   74 % 0 mm
23:18 -5.7 °C -8.2 °C 34256.2 hPa NNE 3.1 km/h 3.1 km/h 75 % 0 mm
23:20 -6.1 °C -8.3 °C 34293.4 hPa WSW 2.6 km/h 2.6 km/h 78 % 0 mm
23:23 -5.7 °C -8.2 °C 34256.2 hPa NNE 3.1 km/h 3.1 km/h 75 % 0 mm
23:28 -5.7 °C -8.3 °C 34256.2 hPa Calm     75 % 0 mm
23:30 -6.1 °C -8.3 °C 34293.4 hPa Calm   2.6 km/h 78 % 0 mm
23:33 -5.7 °C -8.3 °C 34256.2 hPa West 3.1 km/h   75 % 0 mm
23:38 -5.8 °C -8.3 °C 34256.2 hPa SW 3.1 km/h 3.1 km/h 75 % 0 mm
23:40 -6.1 °C -8.3 °C 34293.4 hPa Calm   5.1 km/h 78 % 0 mm
23:43 -5.8 °C -8.4 °C 34293.4 hPa SW 3.1 km/h 3.7 km/h 75 % 0 mm
23:48 -5.9 °C -8.4 °C 34293.4 hPa Calm     75 % 0 mm
23:50 -6.1 °C -8.2 °C 34327.3 hPa SW 2.6 km/h 5.1 km/h 79 % 0 mm
23:53 -5.9 °C -8.5 °C 34293.4 hPa Calm     75 % 0 mm
23:58 -5.9 °C -8.4 °C 34293.4 hPa Calm     76 % 0 mm
Meteo Sesrovires
Elogis d' Weather Underground - 2 mb

Guio original per  Jim McMurry - jmcmurry@mwt.net Adaptat per a la plantilla per  Wim van der Kuil - Leuven-Template.eu

Trobareu la nostra informacio del temps tambe a:

Weather Underground

AWEKAS